<?xml version="1.0" encoding="UTF-8" standalone="no" ?>
<gpx xmlns="http://www.topografix.com/GPX/1/1" xmlns:xsi="http://www.w3.org/2001/XMLSchema-instance" xsi:schemaLocation="http://www.topografix.com/GPX/1/1 http://www.topografix.com/GPX/1/1/gpx.xsd" version="1.1" creator="VisuGPX - https://www.visugpx.com">
  <metadata>
    <name>13606415-Cerces 2 jours</name>
    <desc><![CDATA[2 jours au départ du Lautarel. Possibilité de bivouac au camping]]></desc>
  </metadata>
  <trk>
    <name><![CDATA[13606415-Cerces 2 jours]]></name>
    <extensions>
      <line xmlns="http://www.topografix.com/GPX/gpx_style/0/2">
        <color>0000FF</color>
        <width>4</width>
      </line>
    </extensions>
    <trkseg>
      <trkpt lat="45.01808" lon="6.46631">
        <ele>1719</ele>
        <time>2021-08-27T14:27:36Z</time>
      </trkpt>
      <trkpt lat="45.01832" lon="6.46784">
        <ele>1745</ele>
        <time>2021-08-27T14:29:05Z</time>
      </trkpt>
      <trkpt lat="45.01814" lon="6.46771">
        <ele>1744</ele>
        <time>2021-08-27T14:29:21Z</time>
      </trkpt>
      <trkpt lat="45.01814" lon="6.46859">
        <ele>1766</ele>
        <time>2021-08-27T14:30:11Z</time>
      </trkpt>
      <trkpt lat="45.01799" lon="6.46852">
        <ele>1766</ele>
        <time>2021-08-27T14:30:23Z</time>
      </trkpt>
      <trkpt lat="45.01826" lon="6.47002">
        <ele>1812</ele>
        <time>2021-08-27T14:31:51Z</time>
      </trkpt>
      <trkpt lat="45.01887" lon="6.46985">
        <ele>1818</ele>
        <time>2021-08-27T14:32:41Z</time>
      </trkpt>
      <trkpt lat="45.0197" lon="6.47">
        <ele>1842</ele>
        <time>2021-08-27T14:33:48Z</time>
      </trkpt>
      <trkpt lat="45.01997" lon="6.46972">
        <ele>1843</ele>
        <time>2021-08-27T14:34:15Z</time>
      </trkpt>
      <trkpt lat="45.02087" lon="6.46981">
        <ele>1855</ele>
        <time>2021-08-27T14:35:27Z</time>
      </trkpt>
      <trkpt lat="45.02195" lon="6.47035">
        <ele>1876</ele>
        <time>2021-08-27T14:36:58Z</time>
      </trkpt>
      <trkpt lat="45.02317" lon="6.47065">
        <ele>1892</ele>
        <time>2021-08-27T14:38:38Z</time>
      </trkpt>
      <trkpt lat="45.0239" lon="6.47213">
        <ele>1918</ele>
        <time>2021-08-27T14:40:20Z</time>
      </trkpt>
      <trkpt lat="45.02443" lon="6.47314">
        <ele>1932</ele>
        <time>2021-08-27T14:41:31Z</time>
      </trkpt>
      <trkpt lat="45.02531" lon="6.47483">
        <ele>1957</ele>
        <time>2021-08-27T14:43:30Z</time>
      </trkpt>
      <trkpt lat="45.02575" lon="6.47683">
        <ele>1992</ele>
        <time>2021-08-27T14:45:28Z</time>
      </trkpt>
      <trkpt lat="45.02586" lon="6.47816">
        <ele>2018</ele>
        <time>2021-08-27T14:46:44Z</time>
      </trkpt>
      <trkpt lat="45.02628" lon="6.47942">
        <ele>2061</ele>
        <time>2021-08-27T14:48:03Z</time>
      </trkpt>
      <trkpt lat="45.02704" lon="6.47964">
        <ele>2077</ele>
        <time>2021-08-27T14:49:05Z</time>
      </trkpt>
      <trkpt lat="45.02795" lon="6.48047">
        <ele>2114</ele>
        <time>2021-08-27T14:50:32Z</time>
      </trkpt>
      <trkpt lat="45.02757" lon="6.48108">
        <ele>2117</ele>
        <time>2021-08-27T14:51:18Z</time>
      </trkpt>
      <trkpt lat="45.02859" lon="6.48204">
        <ele>2152</ele>
        <time>2021-08-27T14:52:56Z</time>
      </trkpt>
      <trkpt lat="45.02904" lon="6.48273">
        <ele>2170</ele>
        <time>2021-08-27T14:53:49Z</time>
      </trkpt>
      <trkpt lat="45.02895" lon="6.48489">
        <ele>2212</ele>
        <time>2021-08-27T14:55:51Z</time>
      </trkpt>
      <trkpt lat="45.02982" lon="6.4855">
        <ele>2218</ele>
        <time>2021-08-27T14:57:09Z</time>
      </trkpt>
      <trkpt lat="45.03067" lon="6.48509">
        <ele>2220</ele>
        <time>2021-08-27T14:58:21Z</time>
      </trkpt>
      <trkpt lat="45.03249" lon="6.48663">
        <ele>2244</ele>
        <time>2021-08-27T15:01:11Z</time>
      </trkpt>
      <trkpt lat="45.03482" lon="6.48571">
        <ele>2275</ele>
        <time>2021-08-27T15:04:24Z</time>
      </trkpt>
      <trkpt lat="45.03585" lon="6.48479">
        <ele>2295</ele>
        <time>2021-08-27T15:06:02Z</time>
      </trkpt>
      <trkpt lat="45.03694" lon="6.48401">
        <ele>2319</ele>
        <time>2021-08-27T15:07:40Z</time>
      </trkpt>
      <trkpt lat="45.03961" lon="6.48213">
        <ele>2367</ele>
        <time>2021-08-27T15:11:39Z</time>
      </trkpt>
      <trkpt lat="45.03969" lon="6.48095">
        <ele>2391</ele>
        <time>2021-08-27T15:12:46Z</time>
      </trkpt>
      <trkpt lat="45.03935" lon="6.47891">
        <ele>2420</ele>
        <time>2021-08-27T15:14:44Z</time>
      </trkpt>
      <trkpt lat="45.03948" lon="6.4779">
        <ele>2431</ele>
        <time>2021-08-27T15:15:42Z</time>
      </trkpt>
      <trkpt lat="45.04055" lon="6.47874">
        <ele>2445</ele>
        <time>2021-08-27T15:17:20Z</time>
      </trkpt>
      <trkpt lat="45.04233" lon="6.47869">
        <ele>2449</ele>
        <time>2021-08-27T15:19:43Z</time>
      </trkpt>
      <trkpt lat="45.04305" lon="6.47887">
        <ele>2462</ele>
        <time>2021-08-27T15:20:41Z</time>
      </trkpt>
      <trkpt lat="45.04548" lon="6.47747">
        <ele>2496</ele>
        <time>2021-08-27T15:24:11Z</time>
      </trkpt>
      <trkpt lat="45.04816" lon="6.47618">
        <ele>2522</ele>
        <time>2021-08-27T15:27:58Z</time>
      </trkpt>
      <trkpt lat="45.04888" lon="6.47629">
        <ele>2541</ele>
        <time>2021-08-27T15:28:56Z</time>
      </trkpt>
      <trkpt lat="45.05015" lon="6.47517">
        <ele>2559</ele>
        <time>2021-08-27T15:30:56Z</time>
      </trkpt>
      <trkpt lat="45.05066" lon="6.4744">
        <ele>2560</ele>
        <time>2021-08-27T15:31:56Z</time>
      </trkpt>
      <trkpt lat="45.05138" lon="6.47391">
        <ele>2571</ele>
        <time>2021-08-27T15:33:00Z</time>
      </trkpt>
      <trkpt lat="45.05167" lon="6.47299">
        <ele>2566</ele>
        <time>2021-08-27T15:33:57Z</time>
      </trkpt>
      <trkpt lat="45.05236" lon="6.47185">
        <ele>2563</ele>
        <time>2021-08-27T15:35:21Z</time>
      </trkpt>
      <trkpt lat="45.05304" lon="6.47172">
        <ele>2574</ele>
        <time>2021-08-27T15:36:16Z</time>
      </trkpt>
      <trkpt lat="45.05312" lon="6.47093">
        <ele>2572</ele>
        <time>2021-08-27T15:37:02Z</time>
      </trkpt>
      <trkpt lat="45.05286" lon="6.47032">
        <ele>2565</ele>
        <time>2021-08-27T15:37:42Z</time>
      </trkpt>
      <trkpt lat="45.05312" lon="6.46829">
        <ele>2572</ele>
        <time>2021-08-27T15:39:39Z</time>
      </trkpt>
      <trkpt lat="45.05444" lon="6.4658">
        <ele>2591</ele>
        <time>2021-08-27T15:42:35Z</time>
      </trkpt>
      <trkpt lat="45.05665" lon="6.46674">
        <ele>2563</ele>
        <time>2021-08-27T15:45:39Z</time>
      </trkpt>
      <trkpt lat="45.05747" lon="6.46698">
        <ele>2550</ele>
        <time>2021-08-27T15:46:46Z</time>
      </trkpt>
      <trkpt lat="45.05846" lon="6.46668">
        <ele>2518</ele>
        <time>2021-08-27T15:48:08Z</time>
      </trkpt>
      <trkpt lat="45.06014" lon="6.46811">
        <ele>2514</ele>
        <time>2021-08-27T15:50:44Z</time>
      </trkpt>
      <trkpt lat="45.06138" lon="6.46878">
        <ele>2497</ele>
        <time>2021-08-27T15:52:31Z</time>
      </trkpt>
      <trkpt lat="45.06156" lon="6.46951">
        <ele>2497</ele>
        <time>2021-08-27T15:53:14Z</time>
      </trkpt>
      <trkpt lat="45.062" lon="6.46972">
        <ele>2497</ele>
        <time>2021-08-27T15:53:52Z</time>
      </trkpt>
      <trkpt lat="45.06246" lon="6.46906">
        <ele>2485</ele>
        <time>2021-08-27T15:54:44Z</time>
      </trkpt>
      <trkpt lat="45.06367" lon="6.46921">
        <ele>2486</ele>
        <time>2021-08-27T15:56:21Z</time>
      </trkpt>
      <trkpt lat="45.06452" lon="6.46949">
        <ele>2478</ele>
        <time>2021-08-27T15:57:31Z</time>
      </trkpt>
      <trkpt lat="45.06611" lon="6.4706">
        <ele>2465</ele>
        <time>2021-08-27T15:59:53Z</time>
      </trkpt>
      <trkpt lat="45.06737" lon="6.4709">
        <ele>2439</ele>
        <time>2021-08-27T16:01:35Z</time>
      </trkpt>
      <trkpt lat="45.06776" lon="6.47159">
        <ele>2439</ele>
        <time>2021-08-27T16:02:25Z</time>
      </trkpt>
      <trkpt lat="45.06816" lon="6.47172">
        <ele>2433</ele>
        <time>2021-08-27T16:02:58Z</time>
      </trkpt>
      <trkpt lat="45.06847" lon="6.47142">
        <ele>2425</ele>
        <time>2021-08-27T16:03:28Z</time>
      </trkpt>
      <trkpt lat="45.06872" lon="6.47174">
        <ele>2431</ele>
        <time>2021-08-27T16:03:55Z</time>
      </trkpt>
      <trkpt lat="45.06922" lon="6.47063">
        <ele>2416</ele>
        <time>2021-08-27T16:05:10Z</time>
      </trkpt>
      <trkpt lat="45.07254" lon="6.47022">
        <ele>2403</ele>
        <time>2021-08-27T16:09:37Z</time>
      </trkpt>
      <trkpt lat="45.07358" lon="6.47084">
        <ele>2426</ele>
        <time>2021-08-27T16:11:07Z</time>
      </trkpt>
      <trkpt lat="45.07417" lon="6.47238">
        <ele>2441</ele>
        <time>2021-08-27T16:12:46Z</time>
      </trkpt>
      <trkpt lat="45.07478" lon="6.47412">
        <ele>2468</ele>
        <time>2021-08-27T16:14:36Z</time>
      </trkpt>
      <trkpt lat="45.0746" lon="6.47511">
        <ele>2473</ele>
        <time>2021-08-27T16:15:34Z</time>
      </trkpt>
      <trkpt lat="45.07488" lon="6.4756">
        <ele>2489</ele>
        <time>2021-08-27T16:16:09Z</time>
      </trkpt>
      <trkpt lat="45.0747" lon="6.47627">
        <ele>2484</ele>
        <time>2021-08-27T16:16:50Z</time>
      </trkpt>
      <trkpt lat="45.07567" lon="6.47736">
        <ele>2524</ele>
        <time>2021-08-27T16:18:29Z</time>
      </trkpt>
      <trkpt lat="45.07641" lon="6.47747">
        <ele>2546</ele>
        <time>2021-08-27T16:19:29Z</time>
      </trkpt>
      <trkpt lat="45.07823" lon="6.47683">
        <ele>2575</ele>
        <time>2021-08-27T16:21:59Z</time>
      </trkpt>
      <trkpt lat="45.07882" lon="6.47713">
        <ele>2580</ele>
        <time>2021-08-27T16:22:49Z</time>
      </trkpt>
      <trkpt lat="45.07972" lon="6.47666">
        <ele>2579</ele>
        <time>2021-08-27T16:24:06Z</time>
      </trkpt>
      <trkpt lat="45.08132" lon="6.47642">
        <ele>2556</ele>
        <time>2021-08-27T16:26:15Z</time>
      </trkpt>
      <trkpt lat="45.08184" lon="6.47603">
        <ele>2548</ele>
        <time>2021-08-27T16:27:02Z</time>
      </trkpt>
      <trkpt lat="45.08276" lon="6.47638">
        <ele>2524</ele>
        <time>2021-08-27T16:28:18Z</time>
      </trkpt>
      <trkpt lat="45.08408" lon="6.47612">
        <ele>2492</ele>
        <time>2021-08-27T16:30:05Z</time>
      </trkpt>
      <trkpt lat="45.08481" lon="6.47672">
        <ele>2474</ele>
        <time>2021-08-27T16:31:12Z</time>
      </trkpt>
      <trkpt lat="45.08493" lon="6.47923">
        <ele>2464</ele>
        <time>2021-08-27T16:33:34Z</time>
      </trkpt>
      <trkpt lat="45.08443" lon="6.48095">
        <ele>2458</ele>
        <time>2021-08-27T16:35:20Z</time>
      </trkpt>
      <trkpt lat="45.08404" lon="6.48318">
        <ele>2465</ele>
        <time>2021-08-27T16:37:29Z</time>
      </trkpt>
      <trkpt lat="45.08466" lon="6.48468">
        <ele>2462</ele>
        <time>2021-08-27T16:39:08Z</time>
      </trkpt>
      <trkpt lat="45.08537" lon="6.48472">
        <ele>2466</ele>
        <time>2021-08-27T16:40:05Z</time>
      </trkpt>
      <trkpt lat="45.08479" lon="6.48676">
        <ele>2461</ele>
        <time>2021-08-27T16:42:09Z</time>
      </trkpt>
      <trkpt lat="45.08476" lon="6.48715">
        <ele>2455</ele>
        <time>2021-08-27T16:42:31Z</time>
      </trkpt>
      <trkpt lat="45.08485" lon="6.48768">
        <ele>2448</ele>
        <time>2021-08-27T16:43:02Z</time>
      </trkpt>
      <trkpt lat="45.08443" lon="6.4879">
        <ele>2439</ele>
        <time>2021-08-27T16:43:38Z</time>
      </trkpt>
      <trkpt lat="45.08425" lon="6.48848">
        <ele>2434</ele>
        <time>2021-08-27T16:44:14Z</time>
      </trkpt>
      <trkpt lat="45.08548" lon="6.48865">
        <ele>2418</ele>
        <time>2021-08-27T16:45:53Z</time>
      </trkpt>
      <trkpt lat="45.08566" lon="6.4882">
        <ele>2426</ele>
        <time>2021-08-27T16:46:22Z</time>
      </trkpt>
      <trkpt lat="45.08705" lon="6.4891">
        <ele>2405</ele>
        <time>2021-08-27T16:48:24Z</time>
      </trkpt>
      <trkpt lat="45.08637" lon="6.49047">
        <ele>2400</ele>
        <time>2021-08-27T16:49:59Z</time>
      </trkpt>
      <trkpt lat="45.08525" lon="6.49393">
        <ele>2372</ele>
        <time>2021-08-27T16:53:34Z</time>
      </trkpt>
      <trkpt lat="45.08546" lon="6.49451">
        <ele>2374</ele>
        <time>2021-08-27T16:54:11Z</time>
      </trkpt>
      <trkpt lat="45.08517" lon="6.49562">
        <ele>2364</ele>
        <time>2021-08-27T16:55:18Z</time>
      </trkpt>
      <trkpt lat="45.08529" lon="6.4965">
        <ele>2362</ele>
        <time>2021-08-27T16:56:08Z</time>
      </trkpt>
      <trkpt lat="45.08537" lon="6.49783">
        <ele>2354</ele>
        <time>2021-08-27T16:57:24Z</time>
      </trkpt>
      <trkpt lat="45.08572" lon="6.49895">
        <ele>2346</ele>
        <time>2021-08-27T16:58:33Z</time>
      </trkpt>
      <trkpt lat="45.0852" lon="6.49942">
        <ele>2334</ele>
        <time>2021-08-27T16:59:23Z</time>
      </trkpt>
      <trkpt lat="45.08564" lon="6.49976">
        <ele>2328</ele>
        <time>2021-08-27T17:00:03Z</time>
      </trkpt>
      <trkpt lat="45.08535" lon="6.50022">
        <ele>2316</ele>
        <time>2021-08-27T17:00:38Z</time>
      </trkpt>
      <trkpt lat="45.08591" lon="6.50135">
        <ele>2290</ele>
        <time>2021-08-27T17:01:56Z</time>
      </trkpt>
      <trkpt lat="45.08643" lon="6.50221">
        <ele>2282</ele>
        <time>2021-08-27T17:03:00Z</time>
      </trkpt>
      <trkpt lat="45.08472" lon="6.50457">
        <ele>2236</ele>
        <time>2021-08-27T17:06:11Z</time>
      </trkpt>
      <trkpt lat="45.08373" lon="6.50618">
        <ele>2218</ele>
        <time>2021-08-27T17:08:11Z</time>
      </trkpt>
      <trkpt lat="45.08243" lon="6.50766">
        <ele>2194</ele>
        <time>2021-08-27T17:10:25Z</time>
      </trkpt>
      <trkpt lat="45.08085" lon="6.50852">
        <ele>2171</ele>
        <time>2021-08-27T17:12:41Z</time>
      </trkpt>
      <trkpt lat="45.0806" lon="6.50981">
        <ele>2170</ele>
        <time>2021-08-27T17:13:56Z</time>
      </trkpt>
      <trkpt lat="45.07807" lon="6.5109">
        <ele>2154</ele>
        <time>2021-08-27T17:17:28Z</time>
      </trkpt>
      <trkpt lat="45.07379" lon="6.51395">
        <ele>2149</ele>
        <time>2021-08-27T17:23:52Z</time>
      </trkpt>
      <trkpt lat="45.07261" lon="6.51446">
        <ele>2141</ele>
        <time>2021-08-27T17:25:30Z</time>
      </trkpt>
      <trkpt lat="45.07248" lon="6.5147">
        <ele>2143</ele>
        <time>2021-08-27T17:25:47Z</time>
      </trkpt>
      <trkpt lat="45.06861" lon="6.51695">
        <ele>2112</ele>
        <time>2021-08-27T17:31:22Z</time>
      </trkpt>
      <trkpt lat="45.06826" lon="6.51717">
        <ele>2108</ele>
        <time>2021-08-27T17:31:53Z</time>
      </trkpt>
      <trkpt lat="45.06746" lon="6.51807">
        <ele>2104</ele>
        <time>2021-08-27T17:33:15Z</time>
      </trkpt>
      <trkpt lat="45.06653" lon="6.51931">
        <ele>2093</ele>
        <time>2021-08-27T17:34:57Z</time>
      </trkpt>
      <trkpt lat="45.06478" lon="6.52131">
        <ele>2074</ele>
        <time>2021-08-27T17:37:57Z</time>
      </trkpt>
      <trkpt lat="45.06382" lon="6.52195">
        <ele>2063</ele>
        <time>2021-08-27T17:39:22Z</time>
      </trkpt>
      <trkpt lat="45.06108" lon="6.52429">
        <ele>2040</ele>
        <time>2021-08-27T17:43:38Z</time>
      </trkpt>
      <trkpt lat="45.06041" lon="6.52472">
        <ele>2033</ele>
        <time>2021-08-27T17:44:37Z</time>
      </trkpt>
      <trkpt lat="45.05997" lon="6.52483">
        <ele>2028</ele>
        <time>2021-08-27T17:45:13Z</time>
      </trkpt>
      <trkpt lat="45.05921" lon="6.52564">
        <ele>2023</ele>
        <time>2021-08-27T17:46:29Z</time>
      </trkpt>
      <trkpt lat="45.05855" lon="6.52652">
        <ele>2020</ele>
        <time>2021-08-27T17:47:42Z</time>
      </trkpt>
      <trkpt lat="45.05868" lon="6.52768">
        <ele>2014</ele>
        <time>2021-08-27T17:48:48Z</time>
      </trkpt>
      <trkpt lat="45.05771" lon="6.52873">
        <ele>2005</ele>
        <time>2021-08-27T17:50:26Z</time>
      </trkpt>
      <trkpt lat="45.05632" lon="6.52908">
        <ele>1992</ele>
        <time>2021-08-27T17:52:19Z</time>
      </trkpt>
      <trkpt lat="45.05592" lon="6.52873">
        <ele>1990</ele>
        <time>2021-08-27T17:52:57Z</time>
      </trkpt>
      <trkpt lat="45.05549" lon="6.52888">
        <ele>1991</ele>
        <time>2021-08-27T17:53:32Z</time>
      </trkpt>
      <trkpt lat="45.05535" lon="6.52882">
        <ele>1992</ele>
        <time>2021-08-27T17:53:44Z</time>
      </trkpt>
      <trkpt lat="45.05521" lon="6.52901">
        <ele>1991</ele>
        <time>2021-08-27T17:53:59Z</time>
      </trkpt>
      <trkpt lat="45.05494" lon="6.53004">
        <ele>1985</ele>
        <time>2021-08-27T17:55:02Z</time>
      </trkpt>
      <trkpt lat="45.05398" lon="6.53088">
        <ele>1983</ele>
        <time>2021-08-27T17:56:32Z</time>
      </trkpt>
      <trkpt lat="45.05291" lon="6.5312">
        <ele>1982</ele>
        <time>2021-08-27T17:57:59Z</time>
      </trkpt>
      <trkpt lat="45.05227" lon="6.5312">
        <ele>1981</ele>
        <time>2021-08-27T17:58:51Z</time>
      </trkpt>
      <trkpt lat="45.05136" lon="6.53187">
        <ele>1977</ele>
        <time>2021-08-27T18:00:13Z</time>
      </trkpt>
      <trkpt lat="45.05019" lon="6.53212">
        <ele>1975</ele>
        <time>2021-08-27T18:01:48Z</time>
      </trkpt>
      <trkpt lat="45.04895" lon="6.53221">
        <ele>1969</ele>
        <time>2021-08-27T18:03:27Z</time>
      </trkpt>
      <trkpt lat="45.04827" lon="6.53214">
        <ele>1969</ele>
        <time>2021-08-27T18:04:22Z</time>
      </trkpt>
      <trkpt lat="45.04792" lon="6.53275">
        <ele>1963</ele>
        <time>2021-08-27T18:05:06Z</time>
      </trkpt>
      <trkpt lat="45.04666" lon="6.53388">
        <ele>1955</ele>
        <time>2021-08-27T18:07:06Z</time>
      </trkpt>
      <trkpt lat="45.04609" lon="6.53425">
        <ele>1950</ele>
        <time>2021-08-27T18:07:56Z</time>
      </trkpt>
      <trkpt lat="45.0458" lon="6.53425">
        <ele>1950</ele>
        <time>2021-08-27T18:08:19Z</time>
      </trkpt>
      <trkpt lat="45.04506" lon="6.53463">
        <ele>1954</ele>
        <time>2021-08-27T18:09:22Z</time>
      </trkpt>
      <trkpt lat="45.04427" lon="6.53654">
        <ele>1931</ele>
        <time>2021-08-27T18:11:27Z</time>
      </trkpt>
      <trkpt lat="45.04386" lon="6.53702">
        <ele>1923</ele>
        <time>2021-08-27T18:12:10Z</time>
      </trkpt>
      <trkpt lat="45.04399" lon="6.53747">
        <ele>1910</ele>
        <time>2021-08-27T18:12:37Z</time>
      </trkpt>
      <trkpt lat="45.04366" lon="6.53755">
        <ele>1913</ele>
        <time>2021-08-27T18:13:04Z</time>
      </trkpt>
      <trkpt lat="45.04324" lon="6.53873">
        <ele>1892</ele>
        <time>2021-08-27T18:14:19Z</time>
      </trkpt>
      <trkpt lat="45.0419" lon="6.53938">
        <ele>1884</ele>
        <time>2021-08-27T18:16:12Z</time>
      </trkpt>
      <trkpt lat="45.04114" lon="6.53955">
        <ele>1888</ele>
        <time>2021-08-27T18:17:14Z</time>
      </trkpt>
      <trkpt lat="45.03995" lon="6.54041">
        <ele>1891</ele>
        <time>2021-08-27T18:19:01Z</time>
      </trkpt>
      <trkpt lat="45.03955" lon="6.54086">
        <ele>1888</ele>
        <time>2021-08-27T18:19:42Z</time>
      </trkpt>
      <trkpt lat="45.03805" lon="6.54199">
        <ele>1880</ele>
        <time>2021-08-27T18:21:58Z</time>
      </trkpt>
      <trkpt lat="45.03694" lon="6.54281">
        <ele>1870</ele>
        <time>2021-08-27T18:23:38Z</time>
      </trkpt>
      <trkpt lat="45.03647" lon="6.54281">
        <ele>1870</ele>
        <time>2021-08-27T18:24:16Z</time>
      </trkpt>
      <trkpt lat="45.03434" lon="6.54485">
        <ele>1867</ele>
        <time>2021-08-27T18:27:42Z</time>
      </trkpt>
      <trkpt lat="45.03371" lon="6.54558">
        <ele>1870</ele>
        <time>2021-08-27T18:28:47Z</time>
      </trkpt>
      <trkpt lat="45.03351" lon="6.546">
        <ele>1869</ele>
        <time>2021-08-27T18:29:15Z</time>
      </trkpt>
      <trkpt lat="45.03365" lon="6.54654">
        <ele>1867</ele>
        <time>2021-08-27T18:29:48Z</time>
      </trkpt>
      <trkpt lat="45.03351" lon="6.54713">
        <ele>1867</ele>
        <time>2021-08-27T18:30:23Z</time>
      </trkpt>
      <trkpt lat="45.03371" lon="6.54679">
        <ele>1869</ele>
        <time>2021-08-27T18:30:48Z</time>
      </trkpt>
      <trkpt lat="45.03433" lon="6.5468">
        <ele>1880</ele>
        <time>2021-08-27T18:31:38Z</time>
      </trkpt>
      <trkpt lat="45.03456" lon="6.54689">
        <ele>1887</ele>
        <time>2021-08-27T18:31:57Z</time>
      </trkpt>
      <trkpt lat="45.03437" lon="6.54738">
        <ele>1891</ele>
        <time>2021-08-27T18:32:29Z</time>
      </trkpt>
      <trkpt lat="45.03533" lon="6.54692">
        <ele>1909</ele>
        <time>2021-08-27T18:33:50Z</time>
      </trkpt>
      <trkpt lat="45.03604" lon="6.54668">
        <ele>1924</ele>
        <time>2021-08-27T18:34:48Z</time>
      </trkpt>
      <trkpt lat="45.03628" lon="6.54641">
        <ele>1923</ele>
        <time>2021-08-27T18:35:13Z</time>
      </trkpt>
      <trkpt lat="45.03677" lon="6.54639">
        <ele>1936</ele>
        <time>2021-08-27T18:35:52Z</time>
      </trkpt>
      <trkpt lat="45.03744" lon="6.54576">
        <ele>1941</ele>
        <time>2021-08-27T18:36:56Z</time>
      </trkpt>
      <trkpt lat="45.03829" lon="6.54566">
        <ele>1956</ele>
        <time>2021-08-27T18:38:05Z</time>
      </trkpt>
      <trkpt lat="45.03858" lon="6.54564">
        <ele>1962</ele>
        <time>2021-08-27T18:38:28Z</time>
      </trkpt>
      <trkpt lat="45.03893" lon="6.54538">
        <ele>1962</ele>
        <time>2021-08-27T18:39:00Z</time>
      </trkpt>
      <trkpt lat="45.03976" lon="6.54582">
        <ele>1992</ele>
        <time>2021-08-27T18:40:11Z</time>
      </trkpt>
      <trkpt lat="45.04029" lon="6.54548">
        <ele>1996</ele>
        <time>2021-08-27T18:40:57Z</time>
      </trkpt>
      <trkpt lat="45.04099" lon="6.54522">
        <ele>2007</ele>
        <time>2021-08-27T18:41:55Z</time>
      </trkpt>
      <trkpt lat="45.04138" lon="6.54519">
        <ele>2013</ele>
        <time>2021-08-27T18:42:26Z</time>
      </trkpt>
      <trkpt lat="45.04189" lon="6.5455">
        <ele>2032</ele>
        <time>2021-08-27T18:43:11Z</time>
      </trkpt>
      <trkpt lat="45.04279" lon="6.54516">
        <ele>2039</ele>
        <time>2021-08-27T18:44:25Z</time>
      </trkpt>
      <trkpt lat="45.04307" lon="6.54539">
        <ele>2052</ele>
        <time>2021-08-27T18:44:51Z</time>
      </trkpt>
      <trkpt lat="45.04347" lon="6.54543">
        <ele>2063</ele>
        <time>2021-08-27T18:45:23Z</time>
      </trkpt>
      <trkpt lat="45.04379" lon="6.54566">
        <ele>2074</ele>
        <time>2021-08-27T18:45:52Z</time>
      </trkpt>
      <trkpt lat="45.04512" lon="6.5447">
        <ele>2097</ele>
        <time>2021-08-27T18:47:52Z</time>
      </trkpt>
      <trkpt lat="45.04551" lon="6.54469">
        <ele>2103</ele>
        <time>2021-08-27T18:48:23Z</time>
      </trkpt>
      <trkpt lat="45.04665" lon="6.54403">
        <ele>2117</ele>
        <time>2021-08-27T18:50:02Z</time>
      </trkpt>
      <trkpt lat="45.04706" lon="6.5461">
        <ele>2155</ele>
        <time>2021-08-27T18:52:03Z</time>
      </trkpt>
      <trkpt lat="45.04764" lon="6.54582">
        <ele>2169</ele>
        <time>2021-08-27T18:52:52Z</time>
      </trkpt>
      <trkpt lat="45.04751" lon="6.54692">
        <ele>2192</ele>
        <time>2021-08-27T18:53:55Z</time>
      </trkpt>
      <trkpt lat="45.04838" lon="6.54636">
        <ele>2210</ele>
        <time>2021-08-27T18:55:12Z</time>
      </trkpt>
      <trkpt lat="45.04782" lon="6.54835">
        <ele>2239</ele>
        <time>2021-08-27T18:57:13Z</time>
      </trkpt>
      <trkpt lat="45.04913" lon="6.54822">
        <ele>2269</ele>
        <time>2021-08-27T18:58:58Z</time>
      </trkpt>
      <trkpt lat="45.04756" lon="6.5498">
        <ele>2284</ele>
        <time>2021-08-27T19:01:32Z</time>
      </trkpt>
      <trkpt lat="45.04809" lon="6.55016">
        <ele>2306</ele>
        <time>2021-08-27T19:02:20Z</time>
      </trkpt>
      <trkpt lat="45.04785" lon="6.55103">
        <ele>2315</ele>
        <time>2021-08-27T19:03:12Z</time>
      </trkpt>
      <trkpt lat="45.04911" lon="6.55225">
        <ele>2350</ele>
        <time>2021-08-27T19:05:15Z</time>
      </trkpt>
      <trkpt lat="45.04899" lon="6.55365">
        <ele>2355</ele>
        <time>2021-08-27T19:06:34Z</time>
      </trkpt>
      <trkpt lat="45.0491" lon="6.55238">
        <ele>2350</ele>
        <time>2021-08-27T19:07:47Z</time>
      </trkpt>
      <trkpt lat="45.04785" lon="6.55095">
        <ele>2314</ele>
        <time>2021-08-27T19:09:55Z</time>
      </trkpt>
      <trkpt lat="45.04773" lon="6.54993">
        <ele>2292</ele>
        <time>2021-08-27T19:10:54Z</time>
      </trkpt>
      <trkpt lat="45.04672" lon="6.55177">
        <ele>2303</ele>
        <time>2021-08-27T19:13:06Z</time>
      </trkpt>
      <trkpt lat="45.0445" lon="6.55286">
        <ele>2300</ele>
        <time>2021-08-27T19:16:14Z</time>
      </trkpt>
      <trkpt lat="45.04093" lon="6.55638">
        <ele>2320</ele>
        <time>2021-08-27T19:22:02Z</time>
      </trkpt>
      <trkpt lat="45.03983" lon="6.5572">
        <ele>2320</ele>
        <time>2021-08-27T19:23:42Z</time>
      </trkpt>
      <trkpt lat="45.03819" lon="6.55899">
        <ele>2304</ele>
        <time>2021-08-27T19:26:28Z</time>
      </trkpt>
      <trkpt lat="45.03806" lon="6.55957">
        <ele>2302</ele>
        <time>2021-08-27T19:27:02Z</time>
      </trkpt>
      <trkpt lat="45.03763" lon="6.56019">
        <ele>2287</ele>
        <time>2021-08-27T19:27:51Z</time>
      </trkpt>
      <trkpt lat="45.03783" lon="6.5608">
        <ele>2293</ele>
        <time>2021-08-27T19:28:29Z</time>
      </trkpt>
      <trkpt lat="45.03687" lon="6.56233">
        <ele>2274</ele>
        <time>2021-08-27T19:30:25Z</time>
      </trkpt>
      <trkpt lat="45.03577" lon="6.56302">
        <ele>2248</ele>
        <time>2021-08-27T19:32:01Z</time>
      </trkpt>
      <trkpt lat="45.03478" lon="6.56524">
        <ele>2242</ele>
        <time>2021-08-27T19:34:30Z</time>
      </trkpt>
      <trkpt lat="45.03363" lon="6.56759">
        <ele>2225</ele>
        <time>2021-08-27T19:37:12Z</time>
      </trkpt>
      <trkpt lat="45.03415" lon="6.56919">
        <ele>2248</ele>
        <time>2021-08-27T19:38:51Z</time>
      </trkpt>
      <trkpt lat="45.03323" lon="6.57223">
        <ele>2233</ele>
        <time>2021-08-27T19:41:58Z</time>
      </trkpt>
      <trkpt lat="45.03087" lon="6.57453">
        <ele>2192</ele>
        <time>2021-08-27T19:45:48Z</time>
      </trkpt>
      <trkpt lat="45.0295" lon="6.57626">
        <ele>2178</ele>
        <time>2021-08-27T19:48:15Z</time>
      </trkpt>
      <trkpt lat="45.0296" lon="6.57915">
        <ele>2195</ele>
        <time>2021-08-27T19:50:59Z</time>
      </trkpt>
      <trkpt lat="45.02896" lon="6.58035">
        <ele>2182</ele>
        <time>2021-08-27T19:52:24Z</time>
      </trkpt>
      <trkpt lat="45.02856" lon="6.58078">
        <ele>2169</ele>
        <time>2021-08-27T19:53:04Z</time>
      </trkpt>
      <trkpt lat="45.02813" lon="6.5829">
        <ele>2138</ele>
        <time>2021-08-27T19:55:09Z</time>
      </trkpt>
      <trkpt lat="45.02841" lon="6.58399">
        <ele>2138</ele>
        <time>2021-08-27T19:56:14Z</time>
      </trkpt>
      <trkpt lat="45.02798" lon="6.58547">
        <ele>2111</ele>
        <time>2021-08-27T19:57:45Z</time>
      </trkpt>
      <trkpt lat="45.02767" lon="6.58448">
        <ele>2094</ele>
        <time>2021-08-27T19:58:46Z</time>
      </trkpt>
      <trkpt lat="45.0269" lon="6.58583">
        <ele>2058</ele>
        <time>2021-08-27T20:00:24Z</time>
      </trkpt>
      <trkpt lat="45.02638" lon="6.58468">
        <ele>2027</ele>
        <time>2021-08-27T20:01:42Z</time>
      </trkpt>
      <trkpt lat="45.02573" lon="6.58422">
        <ele>1993</ele>
        <time>2021-08-27T20:02:40Z</time>
      </trkpt>
      <trkpt lat="45.02488" lon="6.58581">
        <ele>1965</ele>
        <time>2021-08-27T20:04:33Z</time>
      </trkpt>
      <trkpt lat="45.02464" lon="6.58514">
        <ele>1946</ele>
        <time>2021-08-27T20:05:15Z</time>
      </trkpt>
      <trkpt lat="45.02405" lon="6.58522">
        <ele>1920</ele>
        <time>2021-08-27T20:06:03Z</time>
      </trkpt>
      <trkpt lat="45.02367" lon="6.58535">
        <ele>1903</ele>
        <time>2021-08-27T20:06:34Z</time>
      </trkpt>
      <trkpt lat="45.02329" lon="6.58524">
        <ele>1884</ele>
        <time>2021-08-27T20:07:05Z</time>
      </trkpt>
      <trkpt lat="45.02282" lon="6.58537">
        <ele>1858</ele>
        <time>2021-08-27T20:07:43Z</time>
      </trkpt>
      <trkpt lat="45.02261" lon="6.58639">
        <ele>1848</ele>
        <time>2021-08-27T20:08:43Z</time>
      </trkpt>
      <trkpt lat="45.02223" lon="6.58553">
        <ele>1827</ele>
        <time>2021-08-27T20:09:41Z</time>
      </trkpt>
      <trkpt lat="45.02232" lon="6.58407">
        <ele>1814</ele>
        <time>2021-08-27T20:11:04Z</time>
      </trkpt>
      <trkpt lat="45.02207" lon="6.58338">
        <ele>1800</ele>
        <time>2021-08-27T20:11:48Z</time>
      </trkpt>
      <trkpt lat="45.02102" lon="6.58394">
        <ele>1777</ele>
        <time>2021-08-27T20:13:17Z</time>
      </trkpt>
      <trkpt lat="45.02125" lon="6.58177">
        <ele>1769</ele>
        <time>2021-08-27T20:15:22Z</time>
      </trkpt>
      <trkpt lat="45.01922" lon="6.58009">
        <ele>1745</ele>
        <time>2021-08-27T20:18:30Z</time>
      </trkpt>
      <trkpt lat="45.01891" lon="6.57866">
        <ele>1752</ele>
        <time>2021-08-27T20:19:55Z</time>
      </trkpt>
      <trkpt lat="45.01855" lon="6.57677">
        <ele>1776</ele>
        <time>2021-08-27T20:21:45Z</time>
      </trkpt>
      <trkpt lat="45.0186" lon="6.57473">
        <ele>1799</ele>
        <time>2021-08-27T20:23:41Z</time>
      </trkpt>
      <trkpt lat="45.01967" lon="6.57389">
        <ele>1795</ele>
        <time>2021-08-27T20:25:19Z</time>
      </trkpt>
      <trkpt lat="45.02001" lon="6.57346">
        <ele>1794</ele>
        <time>2021-08-27T20:25:55Z</time>
      </trkpt>
      <trkpt lat="45.02024" lon="6.57236">
        <ele>1791</ele>
        <time>2021-08-27T20:27:00Z</time>
      </trkpt>
      <trkpt lat="45.02088" lon="6.57157">
        <ele>1791</ele>
        <time>2021-08-27T20:28:08Z</time>
      </trkpt>
      <trkpt lat="45.02091" lon="6.57032">
        <ele>1806</ele>
        <time>2021-08-27T20:29:19Z</time>
      </trkpt>
      <trkpt lat="45.02143" lon="6.5697">
        <ele>1804</ele>
        <time>2021-08-27T20:30:14Z</time>
      </trkpt>
      <trkpt lat="45.02145" lon="6.56856">
        <ele>1814</ele>
        <time>2021-08-27T20:31:18Z</time>
      </trkpt>
      <trkpt lat="45.02239" lon="6.56618">
        <ele>1822</ele>
        <time>2021-08-27T20:33:52Z</time>
      </trkpt>
      <trkpt lat="45.02262" lon="6.56501">
        <ele>1827</ele>
        <time>2021-08-27T20:35:01Z</time>
      </trkpt>
      <trkpt lat="45.02385" lon="6.56458">
        <ele>1815</ele>
        <time>2021-08-27T20:36:43Z</time>
      </trkpt>
      <trkpt lat="45.02389" lon="6.56304">
        <ele>1828</ele>
        <time>2021-08-27T20:38:10Z</time>
      </trkpt>
      <trkpt lat="45.02432" lon="6.56266">
        <ele>1825</ele>
        <time>2021-08-27T20:38:50Z</time>
      </trkpt>
      <trkpt lat="45.02522" lon="6.56118">
        <ele>1826</ele>
        <time>2021-08-27T20:40:41Z</time>
      </trkpt>
      <trkpt lat="45.02565" lon="6.55927">
        <ele>1830</ele>
        <time>2021-08-27T20:42:34Z</time>
      </trkpt>
      <trkpt lat="45.02543" lon="6.55847">
        <ele>1851</ele>
        <time>2021-08-27T20:43:23Z</time>
      </trkpt>
      <trkpt lat="45.02545" lon="6.55684">
        <ele>1868</ele>
        <time>2021-08-27T20:44:55Z</time>
      </trkpt>
      <trkpt lat="45.02574" lon="6.55604">
        <ele>1863</ele>
        <time>2021-08-27T20:45:46Z</time>
      </trkpt>
      <trkpt lat="45.02585" lon="6.55492">
        <ele>1880</ele>
        <time>2021-08-27T20:46:50Z</time>
      </trkpt>
      <trkpt lat="45.02578" lon="6.55396">
        <ele>1900</ele>
        <time>2021-08-27T20:47:45Z</time>
      </trkpt>
      <trkpt lat="45.02557" lon="6.55342">
        <ele>1916</ele>
        <time>2021-08-27T20:48:20Z</time>
      </trkpt>
      <trkpt lat="45.02557" lon="6.55202">
        <ele>1945</ele>
        <time>2021-08-27T20:49:39Z</time>
      </trkpt>
      <trkpt lat="45.02587" lon="6.55184">
        <ele>1940</ele>
        <time>2021-08-27T20:50:05Z</time>
      </trkpt>
      <trkpt lat="45.02649" lon="6.55081">
        <ele>1956</ele>
        <time>2021-08-27T20:51:21Z</time>
      </trkpt>
      <trkpt lat="45.02641" lon="6.55027">
        <ele>1968</ele>
        <time>2021-08-27T20:51:53Z</time>
      </trkpt>
      <trkpt lat="45.02654" lon="6.54973">
        <ele>1976</ele>
        <time>2021-08-27T20:52:25Z</time>
      </trkpt>
      <trkpt lat="45.02709" lon="6.54807">
        <ele>1990</ele>
        <time>2021-08-27T20:54:09Z</time>
      </trkpt>
      <trkpt lat="45.02783" lon="6.54631">
        <ele>2000</ele>
        <time>2021-08-27T20:56:05Z</time>
      </trkpt>
      <trkpt lat="45.02853" lon="6.54613">
        <ele>1988</ele>
        <time>2021-08-27T20:57:02Z</time>
      </trkpt>
      <trkpt lat="45.0296" lon="6.54325">
        <ele>2046</ele>
        <time>2021-08-27T21:00:06Z</time>
      </trkpt>
      <trkpt lat="45.02945" lon="6.54202">
        <ele>2073</ele>
        <time>2021-08-27T21:01:16Z</time>
      </trkpt>
      <trkpt lat="45.03014" lon="6.53946">
        <ele>2105</ele>
        <time>2021-08-27T21:03:51Z</time>
      </trkpt>
      <trkpt lat="45.0307" lon="6.53884">
        <ele>2102</ele>
        <time>2021-08-27T21:04:48Z</time>
      </trkpt>
      <trkpt lat="45.03044" lon="6.53794">
        <ele>2113</ele>
        <time>2021-08-27T21:05:43Z</time>
      </trkpt>
      <trkpt lat="45.02873" lon="6.53628">
        <ele>2151</ele>
        <time>2021-08-27T21:08:29Z</time>
      </trkpt>
      <trkpt lat="45.02781" lon="6.53614">
        <ele>2167</ele>
        <time>2021-08-27T21:09:43Z</time>
      </trkpt>
      <trkpt lat="45.02815" lon="6.53574">
        <ele>2159</ele>
        <time>2021-08-27T21:10:19Z</time>
      </trkpt>
      <trkpt lat="45.02748" lon="6.53466">
        <ele>2174</ele>
        <time>2021-08-27T21:11:40Z</time>
      </trkpt>
      <trkpt lat="45.02684" lon="6.53267">
        <ele>2203</ele>
        <time>2021-08-27T21:13:44Z</time>
      </trkpt>
      <trkpt lat="45.02567" lon="6.53228">
        <ele>2220</ele>
        <time>2021-08-27T21:15:20Z</time>
      </trkpt>
      <trkpt lat="45.0256" lon="6.53173">
        <ele>2225</ele>
        <time>2021-08-27T21:15:52Z</time>
      </trkpt>
      <trkpt lat="45.02452" lon="6.53126">
        <ele>2238</ele>
        <time>2021-08-27T21:17:22Z</time>
      </trkpt>
      <trkpt lat="45.02287" lon="6.52834">
        <ele>2245</ele>
        <time>2021-08-27T21:20:54Z</time>
      </trkpt>
      <trkpt lat="45.02271" lon="6.52719">
        <ele>2266</ele>
        <time>2021-08-27T21:22:00Z</time>
      </trkpt>
      <trkpt lat="45.02409" lon="6.52293">
        <ele>2301</ele>
        <time>2021-08-27T21:26:25Z</time>
      </trkpt>
      <trkpt lat="45.0232" lon="6.51896">
        <ele>2302</ele>
        <time>2021-08-27T21:30:21Z</time>
      </trkpt>
      <trkpt lat="45.02307" lon="6.51593">
        <ele>2338</ele>
        <time>2021-08-27T21:33:13Z</time>
      </trkpt>
      <trkpt lat="45.02419" lon="6.51095">
        <ele>2432</ele>
        <time>2021-08-27T21:38:09Z</time>
      </trkpt>
      <trkpt lat="45.02345" lon="6.50723">
        <ele>2466</ele>
        <time>2021-08-27T21:41:47Z</time>
      </trkpt>
      <trkpt lat="45.02269" lon="6.5038">
        <ele>2495</ele>
        <time>2021-08-27T21:45:11Z</time>
      </trkpt>
      <trkpt lat="45.02432" lon="6.4998">
        <ele>2577</ele>
        <time>2021-08-27T21:49:32Z</time>
      </trkpt>
      <trkpt lat="45.02654" lon="6.49817">
        <ele>2626</ele>
        <time>2021-08-27T21:52:52Z</time>
      </trkpt>
      <trkpt lat="45.02669" lon="6.49727">
        <ele>2630</ele>
        <time>2021-08-27T21:53:45Z</time>
      </trkpt>
      <trkpt lat="45.02822" lon="6.495">
        <ele>2633</ele>
        <time>2021-08-27T21:56:42Z</time>
      </trkpt>
      <trkpt lat="45.02784" lon="6.49424">
        <ele>2626</ele>
        <time>2021-08-27T21:57:35Z</time>
      </trkpt>
      <trkpt lat="45.0284" lon="6.49391">
        <ele>2612</ele>
        <time>2021-08-27T21:58:23Z</time>
      </trkpt>
      <trkpt lat="45.02728" lon="6.49355">
        <ele>2598</ele>
        <time>2021-08-27T21:59:55Z</time>
      </trkpt>
      <trkpt lat="45.02776" lon="6.49341">
        <ele>2593</ele>
        <time>2021-08-27T22:00:35Z</time>
      </trkpt>
      <trkpt lat="45.027" lon="6.49323">
        <ele>2580</ele>
        <time>2021-08-27T22:01:36Z</time>
      </trkpt>
      <trkpt lat="45.027" lon="6.49287">
        <ele>2562</ele>
        <time>2021-08-27T22:01:57Z</time>
      </trkpt>
      <trkpt lat="45.02554" lon="6.49211">
        <ele>2524</ele>
        <time>2021-08-27T22:04:01Z</time>
      </trkpt>
      <trkpt lat="45.02531" lon="6.49164">
        <ele>2501</ele>
        <time>2021-08-27T22:04:34Z</time>
      </trkpt>
      <trkpt lat="45.02618" lon="6.4911">
        <ele>2472</ele>
        <time>2021-08-27T22:05:50Z</time>
      </trkpt>
      <trkpt lat="45.02667" lon="6.49034">
        <ele>2433</ele>
        <time>2021-08-27T22:06:48Z</time>
      </trkpt>
      <trkpt lat="45.02585" lon="6.48951">
        <ele>2399</ele>
        <time>2021-08-27T22:08:09Z</time>
      </trkpt>
      <trkpt lat="45.02605" lon="6.48886">
        <ele>2377</ele>
        <time>2021-08-27T22:08:49Z</time>
      </trkpt>
      <trkpt lat="45.02577" lon="6.4881">
        <ele>2363</ele>
        <time>2021-08-27T22:09:37Z</time>
      </trkpt>
      <trkpt lat="45.02628" lon="6.48803">
        <ele>2350</ele>
        <time>2021-08-27T22:10:18Z</time>
      </trkpt>
      <trkpt lat="45.02595" lon="6.48771">
        <ele>2346</ele>
        <time>2021-08-27T22:10:50Z</time>
      </trkpt>
      <trkpt lat="45.02639" lon="6.48756">
        <ele>2330</ele>
        <time>2021-08-27T22:11:26Z</time>
      </trkpt>
      <trkpt lat="45.02626" lon="6.48699">
        <ele>2318</ele>
        <time>2021-08-27T22:12:00Z</time>
      </trkpt>
      <trkpt lat="45.02672" lon="6.48634">
        <ele>2288</ele>
        <time>2021-08-27T22:12:52Z</time>
      </trkpt>
      <trkpt lat="45.02718" lon="6.48648">
        <ele>2286</ele>
        <time>2021-08-27T22:13:30Z</time>
      </trkpt>
      <trkpt lat="45.02674" lon="6.48587">
        <ele>2278</ele>
        <time>2021-08-27T22:14:19Z</time>
      </trkpt>
      <trkpt lat="45.0272" lon="6.48576">
        <ele>2268</ele>
        <time>2021-08-27T22:14:57Z</time>
      </trkpt>
      <trkpt lat="45.02751" lon="6.48475">
        <ele>2233</ele>
        <time>2021-08-27T22:15:59Z</time>
      </trkpt>
      <trkpt lat="45.02827" lon="6.48442">
        <ele>2217</ele>
        <time>2021-08-27T22:17:03Z</time>
      </trkpt>
      <trkpt lat="45.02896" lon="6.48504">
        <ele>2213</ele>
        <time>2021-08-27T22:18:08Z</time>
      </trkpt>
      <trkpt lat="45.02896" lon="6.48276">
        <ele>2171</ele>
        <time>2021-08-27T22:20:17Z</time>
      </trkpt>
      <trkpt lat="45.02845" lon="6.48172">
        <ele>2141</ele>
        <time>2021-08-27T22:21:29Z</time>
      </trkpt>
      <trkpt lat="45.02779" lon="6.48132">
        <ele>2127</ele>
        <time>2021-08-27T22:22:26Z</time>
      </trkpt>
      <trkpt lat="45.02802" lon="6.48042">
        <ele>2116</ele>
        <time>2021-08-27T22:23:20Z</time>
      </trkpt>
      <trkpt lat="45.02692" lon="6.47944">
        <ele>2070</ele>
        <time>2021-08-27T22:25:05Z</time>
      </trkpt>
      <trkpt lat="45.02626" lon="6.47937">
        <ele>2059</ele>
        <time>2021-08-27T22:25:58Z</time>
      </trkpt>
      <trkpt lat="45.02524" lon="6.47486">
        <ele>1958</ele>
        <time>2021-08-27T22:30:26Z</time>
      </trkpt>
      <trkpt lat="45.02399" lon="6.47237">
        <ele>1921</ele>
        <time>2021-08-27T22:33:18Z</time>
      </trkpt>
      <trkpt lat="45.0232" lon="6.47057">
        <ele>1890</ele>
        <time>2021-08-27T22:35:18Z</time>
      </trkpt>
      <trkpt lat="45.02284" lon="6.47071">
        <ele>1891</ele>
        <time>2021-08-27T22:35:48Z</time>
      </trkpt>
      <trkpt lat="45.02136" lon="6.47002">
        <ele>1860</ele>
        <time>2021-08-27T22:37:53Z</time>
      </trkpt>
      <trkpt lat="45.02001" lon="6.46977">
        <ele>1845</ele>
        <time>2021-08-27T22:39:42Z</time>
      </trkpt>
      <trkpt lat="45.01853" lon="6.46995">
        <ele>1813</ele>
        <time>2021-08-27T22:41:41Z</time>
      </trkpt>
      <trkpt lat="45.0182" lon="6.46974">
        <ele>1803</ele>
        <time>2021-08-27T22:42:10Z</time>
      </trkpt>
      <trkpt lat="45.01802" lon="6.46862">
        <ele>1768</ele>
        <time>2021-08-27T22:43:15Z</time>
      </trkpt>
      <trkpt lat="45.01817" lon="6.46634">
        <ele>1720</ele>
        <time>2021-08-27T22:45:24Z</time>
      </trkpt>
    </trkseg>
  </trk>
</gpx>